sensor_id;sensor_type;location;lat;lon;timestamp;P1;durP1;ratioP1;P2;durP2;ratioP2
59418;SDS011;45224;50.904;6.038;2023-02-15T00:00:05;47.50;;;20.17;;
59418;SDS011;45224;50.904;6.038;2023-02-15T00:01:38;52.38;;;20.83;;
59418;SDS011;45224;50.904;6.038;2023-02-15T00:03:08;46.47;;;19.70;;
59418;SDS011;45224;50.904;6.038;2023-02-15T00:04:39;51.67;;;21.17;;
59418;SDS011;45224;50.904;6.038;2023-02-15T00:06:18;47.85;;;19.58;;
59418;SDS011;45224;50.904;6.038;2023-02-15T00:07:49;50.70;;;22.07;;
59418;SDS011;45224;50.904;6.038;2023-02-15T00:09:19;49.17;;;21.17;;
59418;SDS011;45224;50.904;6.038;2023-02-15T00:10:50;51.13;;;20.53;;
59418;SDS011;45224;50.904;6.038;2023-02-15T00:12:20;55.63;;;22.03;;
59418;SDS011;45224;50.904;6.038;2023-02-15T00:13:50;59.13;;;23.53;;
59418;SDS011;45224;50.904;6.038;2023-02-15T00:15:21;65.47;;;24.50;;
59418;SDS011;45224;50.904;6.038;2023-02-15T00:16:52;71.27;;;25.17;;
59418;SDS011;45224;50.904;6.038;2023-02-15T00:18:23;65.88;;;24.70;;
59418;SDS011;45224;50.904;6.038;2023-02-15T00:19:53;69.60;;;25.20;;
59418;SDS011;45224;50.904;6.038;2023-02-15T00:21:24;72.90;;;26.03;;
59418;SDS011;45224;50.904;6.038;2023-02-15T00:22:54;78.27;;;27.90;;
59418;SDS011;45224;50.904;6.038;2023-02-15T00:24:25;68.10;;;26.20;;
59418;SDS011;45224;50.904;6.038;2023-02-15T00:26:11;72.63;;;26.63;;
59418;SDS011;45224;50.904;6.038;2023-02-15T00:27:44;68.55;;;25.38;;
59418;SDS011;45224;50.904;6.038;2023-02-15T00:29:15;68.50;;;25.63;;
59418;SDS011;45224;50.904;6.038;2023-02-15T00:30:47;58.72;;;23.90;;
59418;SDS011;45224;50.904;6.038;2023-02-15T00:32:18;69.60;;;24.50;;
59418;SDS011;45224;50.904;6.038;2023-02-15T00:33:48;72.17;;;25.50;;
59418;SDS011;45224;50.904;6.038;2023-02-15T00:35:19;63.70;;;24.80;;
59418;SDS011;45224;50.904;6.038;2023-02-15T00:36:49;63.77;;;24.97;;
59418;SDS011;45224;50.904;6.038;2023-02-15T00:38:20;65.45;;;25.27;;
59418;SDS011;45224;50.904;6.038;2023-02-15T00:39:50;59.50;;;23.30;;
59418;SDS011;45224;50.904;6.038;2023-02-15T00:41:21;61.50;;;24.37;;
59418;SDS011;45224;50.904;6.038;2023-02-15T00:42:51;55.87;;;22.67;;
59418;SDS011;45224;50.904;6.038;2023-02-15T00:44:22;57.73;;;22.43;;
59418;SDS011;45224;50.904;6.038;2023-02-15T00:45:52;53.80;;;22.27;;
59418;SDS011;45224;50.904;6.038;2023-02-15T00:47:23;52.03;;;21.17;;
59418;SDS011;45224;50.904;6.038;2023-02-15T00:48:55;64.28;;;22.85;;
59418;SDS011;45224;50.904;6.038;2023-02-15T00:50:26;56.03;;;22.45;;
59418;SDS011;45224;50.904;6.038;2023-02-15T00:51:56;47.53;;;20.90;;
59418;SDS011;45224;50.904;6.038;2023-02-15T00:53:27;48.50;;;21.37;;
59418;SDS011;45224;50.904;6.038;2023-02-15T00:54:58;48.33;;;21.27;;
59418;SDS011;45224;50.904;6.038;2023-02-15T00:56:29;53.90;;;21.17;;
59418;SDS011;45224;50.904;6.038;2023-02-15T00:57:59;46.97;;;20.93;;
59418;SDS011;45224;50.904;6.038;2023-02-15T00:59:30;50.40;;;21.10;;
59418;SDS011;45224;50.904;6.038;2023-02-15T01:01:04;45.63;;;20.77;;
59418;SDS011;45224;50.904;6.038;2023-02-15T01:02:36;58.03;;;22.70;;
59418;SDS011;45224;50.904;6.038;2023-02-15T01:04:06;45.67;;;20.70;;
59418;SDS011;45224;50.904;6.038;2023-02-15T01:05:37;50.80;;;22.00;;
59418;SDS011;45224;50.904;6.038;2023-02-15T01:07:07;52.10;;;21.88;;
59418;SDS011;45224;50.904;6.038;2023-02-15T01:08:38;47.03;;;21.20;;
59418;SDS011;45224;50.904;6.038;2023-02-15T01:10:09;45.78;;;20.38;;
59418;SDS011;45224;50.904;6.038;2023-02-15T01:11:39;45.90;;;20.53;;
59418;SDS011;45224;50.904;6.038;2023-02-15T01:13:10;45.20;;;20.10;;
59418;SDS011;45224;50.904;6.038;2023-02-15T01:14:40;45.37;;;20.17;;
59418;SDS011;45224;50.904;6.038;2023-02-15T01:16:11;47.40;;;20.60;;
59418;SDS011;45224;50.904;6.038;2023-02-15T01:17:41;47.90;;;20.37;;
59418;SDS011;45224;50.904;6.038;2023-02-15T01:19:14;46.90;;;20.08;;
59418;SDS011;45224;50.904;6.038;2023-02-15T01:20:44;47.47;;;20.33;;
59418;SDS011;45224;50.904;6.038;2023-02-15T01:22:15;48.10;;;21.27;;
59418;SDS011;45224;50.904;6.038;2023-02-15T01:23:45;44.60;;;19.30;;
59418;SDS011;45224;50.904;6.038;2023-02-15T01:25:17;47.65;;;20.63;;
59418;SDS011;45224;50.904;6.038;2023-02-15T01:26:47;50.95;;;22.02;;
59418;SDS011;45224;50.904;6.038;2023-02-15T01:28:18;50.83;;;21.40;;
59418;SDS011;45224;50.904;6.038;2023-02-15T01:29:49;51.43;;;21.07;;
59418;SDS011;45224;50.904;6.038;2023-02-15T01:31:20;51.10;;;21.97;;
59418;SDS011;45224;50.904;6.038;2023-02-15T01:32:51;46.47;;;21.50;;
59418;SDS011;45224;50.904;6.038;2023-02-15T01:34:21;47.85;;;20.55;;
59418;SDS011;45224;50.904;6.038;2023-02-15T01:35:58;46.67;;;21.47;;
59418;SDS011;45224;50.904;6.038;2023-02-15T01:37:32;50.72;;;21.02;;
59418;SDS011;45224;50.904;6.038;2023-02-15T01:39:03;48.47;;;22.10;;
59418;SDS011;45224;50.904;6.038;2023-02-15T01:40:35;52.40;;;22.50;;
59418;SDS011;45224;50.904;6.038;2023-02-15T01:42:07;55.93;;;23.70;;
59418;SDS011;45224;50.904;6.038;2023-02-15T01:43:41;50.85;;;22.27;;
59418;SDS011;45224;50.904;6.038;2023-02-15T01:46:50;51.22;;;23.00;;
59418;SDS011;45224;50.904;6.038;2023-02-15T01:48:24;48.45;;;20.65;;
59418;SDS011;45224;50.904;6.038;2023-02-15T01:50:21;50.13;;;22.45;;
59418;SDS011;45224;50.904;6.038;2023-02-15T01:51:51;45.65;;;20.38;;
59418;SDS011;45224;50.904;6.038;2023-02-15T01:53:32;48.60;;;21.60;;
59418;SDS011;45224;50.904;6.038;2023-02-15T01:55:07;49.10;;;20.48;;
59418;SDS011;45224;50.904;6.038;2023-02-15T01:56:38;43.95;;;20.13;;
59418;SDS011;45224;50.904;6.038;2023-02-15T01:58:11;50.80;;;21.10;;
59418;SDS011;45224;50.904;6.038;2023-02-15T01:59:42;45.67;;;21.77;;
59418;SDS011;45224;50.904;6.038;2023-02-15T02:01:16;51.50;;;20.77;;
59418;SDS011;45224;50.904;6.038;2023-02-15T02:06:10;47.50;;;19.85;;
59418;SDS011;45224;50.904;6.038;2023-02-15T02:07:44;56.28;;;21.05;;
59418;SDS011;45224;50.904;6.038;2023-02-15T02:09:16;52.63;;;22.85;;
59418;SDS011;45224;50.904;6.038;2023-02-15T02:10:47;57.27;;;23.07;;
59418;SDS011;45224;50.904;6.038;2023-02-15T02:13:50;48.38;;;19.90;;
59418;SDS011;45224;50.904;6.038;2023-02-15T02:15:27;48.85;;;21.00;;
59418;SDS011;45224;50.904;6.038;2023-02-15T02:17:16;49.60;;;20.30;;
59418;SDS011;45224;50.904;6.038;2023-02-15T02:28:10;51.47;;;21.45;;
59418;SDS011;45224;50.904;6.038;2023-02-15T02:38:55;45.55;;;20.27;;
59418;SDS011;45224;50.904;6.038;2023-02-15T02:44:10;47.38;;;20.05;;
59418;SDS011;45224;50.904;6.038;2023-02-15T02:45:57;44.63;;;18.98;;
59418;SDS011;45224;50.904;6.038;2023-02-15T02:47:35;44.10;;;19.05;;
59418;SDS011;45224;50.904;6.038;2023-02-15T02:49:13;43.13;;;20.02;;
59418;SDS011;45224;50.904;6.038;2023-02-15T02:50:44;41.67;;;18.10;;
59418;SDS011;45224;50.904;6.038;2023-02-15T02:54:04;43.88;;;19.73;;
59418;SDS011;45224;50.904;6.038;2023-02-15T02:57:10;38.40;;;18.23;;
59418;SDS011;45224;50.904;6.038;2023-02-15T02:58:48;43.97;;;18.73;;
59418;SDS011;45224;50.904;6.038;2023-02-15T03:00:24;42.05;;;18.70;;
59418;SDS011;45224;50.904;6.038;2023-02-15T03:02:04;39.03;;;16.60;;
59418;SDS011;45224;50.904;6.038;2023-02-15T03:04:43;43.58;;;18.48;;
59418;SDS011;45224;50.904;6.038;2023-02-15T03:05:45;45.78;;;18.38;;
59418;SDS011;45224;50.904;6.038;2023-02-15T03:07:21;42.53;;;18.63;;
59418;SDS011;45224;50.904;6.038;2023-02-15T03:08:56;43.83;;;19.25;;
59418;SDS011;45224;50.904;6.038;2023-02-15T03:10:33;42.28;;;19.10;;
59418;SDS011;45224;50.904;6.038;2023-02-15T03:12:05;40.40;;;18.70;;
59418;SDS011;45224;50.904;6.038;2023-02-15T03:13:41;40.30;;;17.95;;
59418;SDS011;45224;50.904;6.038;2023-02-15T03:15:25;40.90;;;18.33;;
59418;SDS011;45224;50.904;6.038;2023-02-15T03:17:21;38.47;;;18.05;;
59418;SDS011;45224;50.904;6.038;2023-02-15T03:19:01;38.28;;;18.42;;
59418;SDS011;45224;50.904;6.038;2023-02-15T03:20:39;39.22;;;18.67;;
59418;SDS011;45224;50.904;6.038;2023-02-15T03:22:14;39.27;;;17.67;;
59418;SDS011;45224;50.904;6.038;2023-02-15T03:23:52;41.38;;;18.83;;
59418;SDS011;45224;50.904;6.038;2023-02-15T03:25:32;41.42;;;18.00;;
59418;SDS011;45224;50.904;6.038;2023-02-15T03:27:07;39.90;;;18.58;;
59418;SDS011;45224;50.904;6.038;2023-02-15T03:28:43;38.67;;;18.17;;
59418;SDS011;45224;50.904;6.038;2023-02-15T03:30:18;41.67;;;17.92;;
59418;SDS011;45224;50.904;6.038;2023-02-15T03:31:54;38.00;;;17.23;;
59418;SDS011;45224;50.904;6.038;2023-02-15T03:33:28;39.60;;;18.30;;
59418;SDS011;45224;50.904;6.038;2023-02-15T03:34:59;39.90;;;19.40;;
59418;SDS011;45224;50.904;6.038;2023-02-15T03:36:33;40.78;;;18.10;;
59418;SDS011;45224;50.904;6.038;2023-02-15T03:38:17;37.20;;;17.27;;
59418;SDS011;45224;50.904;6.038;2023-02-15T03:39:57;37.45;;;17.77;;
59418;SDS011;45224;50.904;6.038;2023-02-15T03:41:58;40.85;;;17.98;;
59418;SDS011;45224;50.904;6.038;2023-02-15T03:43:38;41.33;;;17.63;;
59418;SDS011;45224;50.904;6.038;2023-02-15T03:45:16;41.83;;;18.05;;
59418;SDS011;45224;50.904;6.038;2023-02-15T03:46:58;34.33;;;16.40;;
59418;SDS011;45224;50.904;6.038;2023-02-15T03:48:54;39.42;;;16.63;;
59418;SDS011;45224;50.904;6.038;2023-02-15T03:50:27;34.42;;;16.60;;
59418;SDS011;45224;50.904;6.038;2023-02-15T03:52:20;37.33;;;16.95;;
59418;SDS011;45224;50.904;6.038;2023-02-15T03:53:52;34.50;;;16.45;;
59418;SDS011;45224;50.904;6.038;2023-02-15T03:55:24;35.88;;;16.13;;
59418;SDS011;45224;50.904;6.038;2023-02-15T03:56:56;39.67;;;18.17;;
59418;SDS011;45224;50.904;6.038;2023-02-15T03:58:47;40.05;;;16.75;;
59418;SDS011;45224;50.904;6.038;2023-02-15T04:00:37;36.78;;;16.70;;
59418;SDS011;45224;50.904;6.038;2023-02-15T04:02:40;38.72;;;17.10;;
59418;SDS011;45224;50.904;6.038;2023-02-15T04:04:21;37.78;;;15.88;;
59418;SDS011;45224;50.904;6.038;2023-02-15T04:05:55;42.88;;;17.77;;
59418;SDS011;45224;50.904;6.038;2023-02-15T04:07:25;34.47;;;16.00;;
59418;SDS011;45224;50.904;6.038;2023-02-15T04:08:56;36.70;;;16.57;;
59418;SDS011;45224;50.904;6.038;2023-02-15T04:10:45;35.00;;;16.85;;
59418;SDS011;45224;50.904;6.038;2023-02-15T04:12:26;36.45;;;17.27;;
59418;SDS011;45224;50.904;6.038;2023-02-15T04:13:56;38.33;;;16.97;;
59418;SDS011;45224;50.904;6.038;2023-02-15T04:15:27;39.03;;;16.80;;
59418;SDS011;45224;50.904;6.038;2023-02-15T04:17:16;35.58;;;15.98;;
59418;SDS011;45224;50.904;6.038;2023-02-15T04:18:46;35.55;;;16.55;;
59418;SDS011;45224;50.904;6.038;2023-02-15T04:20:35;38.17;;;17.70;;
59418;SDS011;45224;50.904;6.038;2023-02-15T04:22:24;40.05;;;18.33;;
59418;SDS011;45224;50.904;6.038;2023-02-15T04:24:13;37.75;;;17.20;;
59418;SDS011;45224;50.904;6.038;2023-02-15T04:26:04;35.22;;;17.05;;
59418;SDS011;45224;50.904;6.038;2023-02-15T04:27:37;32.30;;;15.55;;
59418;SDS011;45224;50.904;6.038;2023-02-15T04:30:39;30.42;;;13.80;;
59418;SDS011;45224;50.904;6.038;2023-02-15T04:32:09;34.47;;;15.73;;
59418;SDS011;45224;50.904;6.038;2023-02-15T04:33:40;33.00;;;16.87;;
59418;SDS011;45224;50.904;6.038;2023-02-15T04:35:10;33.77;;;14.97;;
59418;SDS011;45224;50.904;6.038;2023-02-15T04:36:41;33.72;;;15.35;;
59418;SDS011;45224;50.904;6.038;2023-02-15T04:38:12;34.80;;;15.00;;
59418;SDS011;45224;50.904;6.038;2023-02-15T04:39:42;32.70;;;15.50;;
59418;SDS011;45224;50.904;6.038;2023-02-15T04:41:13;32.83;;;15.20;;
59418;SDS011;45224;50.904;6.038;2023-02-15T04:42:43;29.77;;;14.43;;
59418;SDS011;45224;50.904;6.038;2023-02-15T04:44:14;32.63;;;13.93;;
59418;SDS011;45224;50.904;6.038;2023-02-15T04:45:48;33.67;;;15.80;;
59418;SDS011;45224;50.904;6.038;2023-02-15T04:47:19;38.72;;;16.20;;
59418;SDS011;45224;50.904;6.038;2023-02-15T04:48:50;36.20;;;15.63;;
59418;SDS011;45224;50.904;6.038;2023-02-15T04:50:20;30.77;;;14.40;;
59418;SDS011;45224;50.904;6.038;2023-02-15T04:51:51;32.35;;;15.50;;
59418;SDS011;45224;50.904;6.038;2023-02-15T04:53:22;31.33;;;14.80;;
59418;SDS011;45224;50.904;6.038;2023-02-15T04:54:52;33.20;;;15.17;;
59418;SDS011;45224;50.904;6.038;2023-02-15T04:56:22;28.60;;;14.27;;
59418;SDS011;45224;50.904;6.038;2023-02-15T04:57:53;33.87;;;15.07;;
59418;SDS011;45224;50.904;6.038;2023-02-15T04:59:23;30.57;;;15.47;;
59418;SDS011;45224;50.904;6.038;2023-02-15T05:00:54;31.43;;;15.23;;
59418;SDS011;45224;50.904;6.038;2023-02-15T05:02:26;31.67;;;14.57;;
59418;SDS011;45224;50.904;6.038;2023-02-15T05:03:56;30.47;;;14.43;;
59418;SDS011;45224;50.904;6.038;2023-02-15T05:05:27;33.50;;;14.97;;
59418;SDS011;45224;50.904;6.038;2023-02-15T05:06:57;33.30;;;15.50;;
59418;SDS011;45224;50.904;6.038;2023-02-15T05:08:28;31.63;;;14.43;;
59418;SDS011;45224;50.904;6.038;2023-02-15T05:09:58;30.07;;;14.43;;
59418;SDS011;45224;50.904;6.038;2023-02-15T05:11:29;30.33;;;14.50;;
59418;SDS011;45224;50.904;6.038;2023-02-15T05:12:59;35.87;;;15.07;;
59418;SDS011;45224;50.904;6.038;2023-02-15T05:14:29;30.37;;;13.87;;
59418;SDS011;45224;50.904;6.038;2023-02-15T05:16:00;30.20;;;15.33;;
59418;SDS011;45224;50.904;6.038;2023-02-15T05:17:30;33.47;;;15.37;;
59418;SDS011;45224;50.904;6.038;2023-02-15T05:19:01;34.83;;;15.50;;
59418;SDS011;45224;50.904;6.038;2023-02-15T05:20:32;31.20;;;15.10;;
59418;SDS011;45224;50.904;6.038;2023-02-15T05:22:03;31.37;;;14.87;;
59418;SDS011;45224;50.904;6.038;2023-02-15T05:25:04;31.02;;;14.63;;
59418;SDS011;45224;50.904;6.038;2023-02-15T05:26:53;27.80;;;13.75;;
59418;SDS011;45224;50.904;6.038;2023-02-15T05:28:42;32.00;;;14.27;;
59418;SDS011;45224;50.904;6.038;2023-02-15T05:30:12;30.43;;;14.63;;
59418;SDS011;45224;50.904;6.038;2023-02-15T05:31:43;34.38;;;16.45;;
59418;SDS011;45224;50.904;6.038;2023-02-15T05:33:17;31.90;;;15.18;;
59418;SDS011;45224;50.904;6.038;2023-02-15T05:34:47;32.35;;;14.50;;
59418;SDS011;45224;50.904;6.038;2023-02-15T05:36:18;31.03;;;15.50;;
59418;SDS011;45224;50.904;6.038;2023-02-15T05:37:48;31.53;;;14.20;;
59418;SDS011;45224;50.904;6.038;2023-02-15T05:39:19;28.50;;;14.03;;
59418;SDS011;45224;50.904;6.038;2023-02-15T05:40:52;27.87;;;14.33;;
59418;SDS011;45224;50.904;6.038;2023-02-15T05:42:23;33.95;;;15.20;;
59418;SDS011;45224;50.904;6.038;2023-02-15T05:43:55;32.30;;;15.13;;
59418;SDS011;45224;50.904;6.038;2023-02-15T05:45:26;30.15;;;14.77;;
59418;SDS011;45224;50.904;6.038;2023-02-15T05:46:57;27.93;;;14.03;;
59418;SDS011;45224;50.904;6.038;2023-02-15T05:48:28;27.08;;;14.27;;
59418;SDS011;45224;50.904;6.038;2023-02-15T05:49:59;26.27;;;13.93;;
59418;SDS011;45224;50.904;6.038;2023-02-15T05:51:29;29.03;;;14.00;;
59418;SDS011;45224;50.904;6.038;2023-02-15T05:53:00;26.40;;;13.43;;
59418;SDS011;45224;50.904;6.038;2023-02-15T05:54:30;27.67;;;13.53;;
59418;SDS011;45224;50.904;6.038;2023-02-15T05:56:01;32.03;;;15.73;;
59418;SDS011;45224;50.904;6.038;2023-02-15T05:57:32;33.47;;;15.68;;
59418;SDS011;45224;50.904;6.038;2023-02-15T05:59:02;36.70;;;16.40;;
59418;SDS011;45224;50.904;6.038;2023-02-15T06:00:33;41.57;;;19.50;;
59418;SDS011;45224;50.904;6.038;2023-02-15T06:02:04;41.72;;;18.73;;
59418;SDS011;45224;50.904;6.038;2023-02-15T06:03:36;38.25;;;16.80;;
59418;SDS011;45224;50.904;6.038;2023-02-15T06:05:07;38.70;;;17.15;;
59418;SDS011;45224;50.904;6.038;2023-02-15T06:06:37;36.17;;;16.07;;
59418;SDS011;45224;50.904;6.038;2023-02-15T06:08:08;35.33;;;15.67;;
59418;SDS011;45224;50.904;6.038;2023-02-15T06:09:38;30.93;;;15.23;;
59418;SDS011;45224;50.904;6.038;2023-02-15T06:11:09;27.88;;;13.48;;
59418;SDS011;45224;50.904;6.038;2023-02-15T06:12:39;31.07;;;13.70;;
59418;SDS011;45224;50.904;6.038;2023-02-15T06:14:10;30.07;;;12.90;;
59418;SDS011;45224;50.904;6.038;2023-02-15T06:15:41;24.48;;;11.80;;
59418;SDS011;45224;50.904;6.038;2023-02-15T06:17:11;25.70;;;12.30;;
59418;SDS011;45224;50.904;6.038;2023-02-15T06:18:42;26.57;;;11.87;;
59418;SDS011;45224;50.904;6.038;2023-02-15T06:20:13;25.33;;;11.65;;
59418;SDS011;45224;50.904;6.038;2023-02-15T06:21:43;28.77;;;12.80;;
59418;SDS011;45224;50.904;6.038;2023-02-15T06:23:14;29.87;;;13.23;;
59418;SDS011;45224;50.904;6.038;2023-02-15T06:24:45;32.10;;;14.82;;
59418;SDS011;45224;50.904;6.038;2023-02-15T06:26:15;33.03;;;14.50;;
59418;SDS011;45224;50.904;6.038;2023-02-15T06:27:46;28.83;;;13.77;;
59418;SDS011;45224;50.904;6.038;2023-02-15T06:29:16;31.83;;;15.23;;
59418;SDS011;45224;50.904;6.038;2023-02-15T06:30:47;30.00;;;13.87;;
59418;SDS011;45224;50.904;6.038;2023-02-15T06:32:17;28.30;;;14.13;;
59418;SDS011;45224;50.904;6.038;2023-02-15T06:33:47;26.60;;;13.10;;
59418;SDS011;45224;50.904;6.038;2023-02-15T06:35:18;23.80;;;11.67;;
59418;SDS011;45224;50.904;6.038;2023-02-15T06:38:20;22.45;;;11.10;;
59418;SDS011;45224;50.904;6.038;2023-02-15T06:39:50;22.47;;;10.13;;
59418;SDS011;45224;50.904;6.038;2023-02-15T06:41:21;22.93;;;10.77;;
59418;SDS011;45224;50.904;6.038;2023-02-15T06:42:51;21.83;;;10.60;;
59418;SDS011;45224;50.904;6.038;2023-02-15T06:44:22;20.80;;;10.63;;
59418;SDS011;45224;50.904;6.038;2023-02-15T06:45:52;22.23;;;10.97;;
59418;SDS011;45224;50.904;6.038;2023-02-15T06:47:23;23.13;;;10.23;;
59418;SDS011;45224;50.904;6.038;2023-02-15T06:48:53;19.40;;;10.17;;
59418;SDS011;45224;50.904;6.038;2023-02-15T06:50:24;22.23;;;9.43;;
59418;SDS011;45224;50.904;6.038;2023-02-15T06:51:54;20.43;;;9.63;;
59418;SDS011;45224;50.904;6.038;2023-02-15T06:53:25;20.13;;;9.87;;
59418;SDS011;45224;50.904;6.038;2023-02-15T06:54:55;19.30;;;9.37;;
59418;SDS011;45224;50.904;6.038;2023-02-15T06:56:26;21.30;;;9.83;;
59418;SDS011;45224;50.904;6.038;2023-02-15T06:57:56;17.00;;;8.73;;
59418;SDS011;45224;50.904;6.038;2023-02-15T06:59:27;20.57;;;9.30;;
59418;SDS011;45224;50.904;6.038;2023-02-15T07:00:57;19.13;;;9.77;;
59418;SDS011;45224;50.904;6.038;2023-02-15T07:02:27;17.07;;;8.93;;
59418;SDS011;45224;50.904;6.038;2023-02-15T07:03:58;19.07;;;9.63;;
59418;SDS011;45224;50.904;6.038;2023-02-15T07:05:28;18.50;;;9.30;;
59418;SDS011;45224;50.904;6.038;2023-02-15T07:07:03;17.88;;;9.20;;
59418;SDS011;45224;50.904;6.038;2023-02-15T07:08:36;21.00;;;9.65;;
59418;SDS011;45224;50.904;6.038;2023-02-15T07:10:07;17.38;;;9.18;;
59418;SDS011;45224;50.904;6.038;2023-02-15T07:11:38;16.92;;;8.68;;
59418;SDS011;45224;50.904;6.038;2023-02-15T07:13:27;20.17;;;9.35;;
59418;SDS011;45224;50.904;6.038;2023-02-15T07:14:58;18.47;;;8.83;;
59418;SDS011;45224;50.904;6.038;2023-02-15T07:16:28;16.15;;;8.45;;
59418;SDS011;45224;50.904;6.038;2023-02-15T07:17:59;21.13;;;9.47;;
59418;SDS011;45224;50.904;6.038;2023-02-15T07:19:29;14.87;;;7.87;;
59418;SDS011;45224;50.904;6.038;2023-02-15T07:21:00;16.90;;;8.40;;
59418;SDS011;45224;50.904;6.038;2023-02-15T07:22:30;20.67;;;8.93;;
59418;SDS011;45224;50.904;6.038;2023-02-15T07:24:00;16.17;;;8.57;;
59418;SDS011;45224;50.904;6.038;2023-02-15T07:25:31;18.87;;;9.10;;
59418;SDS011;45224;50.904;6.038;2023-02-15T07:27:01;20.10;;;9.43;;
59418;SDS011;45224;50.904;6.038;2023-02-15T07:28:32;18.07;;;8.80;;
59418;SDS011;45224;50.904;6.038;2023-02-15T07:30:04;16.60;;;8.48;;
59418;SDS011;45224;50.904;6.038;2023-02-15T07:31:36;16.27;;;8.55;;
59418;SDS011;45224;50.904;6.038;2023-02-15T07:33:06;16.30;;;8.80;;
59418;SDS011;45224;50.904;6.038;2023-02-15T07:34:57;16.45;;;8.70;;
59418;SDS011;45224;50.904;6.038;2023-02-15T07:36:28;17.95;;;8.85;;
59418;SDS011;45224;50.904;6.038;2023-02-15T07:37:59;18.03;;;8.67;;
59418;SDS011;45224;50.904;6.038;2023-02-15T07:39:29;17.50;;;8.93;;
59418;SDS011;45224;50.904;6.038;2023-02-15T07:41:04;20.40;;;9.37;;
59418;SDS011;45224;50.904;6.038;2023-02-15T07:42:36;17.15;;;8.30;;
59418;SDS011;45224;50.904;6.038;2023-02-15T07:44:10;17.43;;;8.80;;
59418;SDS011;45224;50.904;6.038;2023-02-15T07:45:42;14.98;;;8.20;;
59418;SDS011;45224;50.904;6.038;2023-02-15T07:47:13;17.57;;;9.77;;
59418;SDS011;45224;50.904;6.038;2023-02-15T07:48:44;19.17;;;9.37;;
59418;SDS011;45224;50.904;6.038;2023-02-15T07:51:45;16.23;;;9.10;;
59418;SDS011;45224;50.904;6.038;2023-02-15T07:53:16;18.37;;;9.47;;
59418;SDS011;45224;50.904;6.038;2023-02-15T07:54:46;18.23;;;9.23;;
59418;SDS011;45224;50.904;6.038;2023-02-15T07:56:17;16.17;;;8.97;;
59418;SDS011;45224;50.904;6.038;2023-02-15T07:57:48;18.93;;;8.43;;
59418;SDS011;45224;50.904;6.038;2023-02-15T07:59:20;17.67;;;9.43;;
59418;SDS011;45224;50.904;6.038;2023-02-15T08:00:50;16.03;;;9.00;;
59418;SDS011;45224;50.904;6.038;2023-02-15T08:02:26;15.50;;;7.97;;
59418;SDS011;45224;50.904;6.038;2023-02-15T08:03:59;18.45;;;9.02;;
59418;SDS011;45224;50.904;6.038;2023-02-15T08:05:29;18.67;;;9.27;;
59418;SDS011;45224;50.904;6.038;2023-02-15T08:07:00;14.67;;;7.90;;
59418;SDS011;45224;50.904;6.038;2023-02-15T08:08:30;19.50;;;8.57;;
59418;SDS011;45224;50.904;6.038;2023-02-15T08:10:00;14.83;;;8.33;;
59418;SDS011;45224;50.904;6.038;2023-02-15T08:11:32;15.30;;;8.73;;
59418;SDS011;45224;50.904;6.038;2023-02-15T08:13:05;15.20;;;8.73;;
59418;SDS011;45224;50.904;6.038;2023-02-15T08:14:35;17.63;;;9.93;;
59418;SDS011;45224;50.904;6.038;2023-02-15T08:16:06;18.63;;;9.60;;
59418;SDS011;45224;50.904;6.038;2023-02-15T08:17:36;19.27;;;10.23;;
59418;SDS011;45224;50.904;6.038;2023-02-15T08:20:50;16.02;;;9.10;;
59418;SDS011;45224;50.904;6.038;2023-02-15T08:22:21;18.77;;;10.00;;
59418;SDS011;45224;50.904;6.038;2023-02-15T08:23:51;21.10;;;10.40;;
59418;SDS011;45224;50.904;6.038;2023-02-15T08:25:22;20.33;;;10.85;;
59418;SDS011;45224;50.904;6.038;2023-02-15T08:26:53;20.40;;;9.87;;
59418;SDS011;45224;50.904;6.038;2023-02-15T08:28:23;23.27;;;10.98;;
59418;SDS011;45224;50.904;6.038;2023-02-15T08:29:54;21.60;;;10.70;;
59418;SDS011;45224;50.904;6.038;2023-02-15T08:31:24;22.57;;;12.40;;
59418;SDS011;45224;50.904;6.038;2023-02-15T08:32:55;23.50;;;12.15;;
59418;SDS011;45224;50.904;6.038;2023-02-15T08:34:26;22.70;;;11.90;;
59418;SDS011;45224;50.904;6.038;2023-02-15T08:35:56;24.07;;;11.33;;
59418;SDS011;45224;50.904;6.038;2023-02-15T08:37:27;28.03;;;11.63;;
59418;SDS011;45224;50.904;6.038;2023-02-15T08:38:57;23.20;;;11.33;;
59418;SDS011;45224;50.904;6.038;2023-02-15T08:40:29;21.95;;;11.85;;
59418;SDS011;45224;50.904;6.038;2023-02-15T08:41:59;22.70;;;11.90;;
59418;SDS011;45224;50.904;6.038;2023-02-15T08:43:30;24.88;;;11.77;;
59418;SDS011;45224;50.904;6.038;2023-02-15T08:45:01;28.92;;;12.23;;
59418;SDS011;45224;50.904;6.038;2023-02-15T08:46:32;25.87;;;11.83;;
59418;SDS011;45224;50.904;6.038;2023-02-15T08:48:04;25.42;;;12.85;;
59418;SDS011;45224;50.904;6.038;2023-02-15T08:49:35;23.47;;;13.03;;
59418;SDS011;45224;50.904;6.038;2023-02-15T08:51:07;24.17;;;13.13;;
59418;SDS011;45224;50.904;6.038;2023-02-15T08:52:40;28.08;;;14.32;;
59418;SDS011;45224;50.904;6.038;2023-02-15T08:54:15;28.03;;;14.03;;
59418;SDS011;45224;50.904;6.038;2023-02-15T08:55:54;29.15;;;14.88;;
59418;SDS011;45224;50.904;6.038;2023-02-15T08:57:28;24.33;;;13.27;;
59418;SDS011;45224;50.904;6.038;2023-02-15T08:58:59;26.95;;;13.50;;
59418;SDS011;45224;50.904;6.038;2023-02-15T09:00:30;29.60;;;14.93;;
59418;SDS011;45224;50.904;6.038;2023-02-15T09:02:01;27.92;;;14.82;;
59418;SDS011;45224;50.904;6.038;2023-02-15T09:03:33;25.98;;;13.75;;
59418;SDS011;45224;50.904;6.038;2023-02-15T09:05:03;24.98;;;13.57;;
59418;SDS011;45224;50.904;6.038;2023-02-15T09:06:34;29.70;;;13.93;;
59418;SDS011;45224;50.904;6.038;2023-02-15T09:08:06;22.25;;;12.98;;
59418;SDS011;45224;50.904;6.038;2023-02-15T09:09:36;26.77;;;12.90;;
59418;SDS011;45224;50.904;6.038;2023-02-15T09:11:08;21.83;;;12.10;;
59418;SDS011;45224;50.904;6.038;2023-02-15T09:12:52;22.00;;;12.05;;
59418;SDS011;45224;50.904;6.038;2023-02-15T09:14:23;23.57;;;11.43;;
59418;SDS011;45224;50.904;6.038;2023-02-15T09:15:58;26.42;;;12.68;;
59418;SDS011;45224;50.904;6.038;2023-02-15T09:17:33;25.05;;;11.60;;
59418;SDS011;45224;50.904;6.038;2023-02-15T09:19:04;25.73;;;11.97;;
59418;SDS011;45224;50.904;6.038;2023-02-15T09:22:06;26.52;;;11.10;;
59418;SDS011;45224;50.904;6.038;2023-02-15T09:23:36;19.95;;;11.15;;
59418;SDS011;45224;50.904;6.038;2023-02-15T09:25:07;25.70;;;12.82;;
59418;SDS011;45224;50.904;6.038;2023-02-15T09:26:38;26.08;;;11.70;;
59418;SDS011;45224;50.904;6.038;2023-02-15T09:28:13;24.13;;;11.93;;
59418;SDS011;45224;50.904;6.038;2023-02-15T09:29:43;24.50;;;12.10;;
59418;SDS011;45224;50.904;6.038;2023-02-15T09:31:18;25.80;;;13.23;;
59418;SDS011;45224;50.904;6.038;2023-02-15T09:32:50;26.70;;;13.02;;
59418;SDS011;45224;50.904;6.038;2023-02-15T09:34:21;26.10;;;12.57;;
59418;SDS011;45224;50.904;6.038;2023-02-15T09:35:52;26.38;;;13.15;;
59418;SDS011;45224;50.904;6.038;2023-02-15T09:37:22;23.97;;;12.30;;
59418;SDS011;45224;50.904;6.038;2023-02-15T09:39:09;29.02;;;13.50;;
59418;SDS011;45224;50.904;6.038;2023-02-15T09:40:46;27.25;;;13.75;;
59418;SDS011;45224;50.904;6.038;2023-02-15T09:42:31;28.35;;;13.43;;
59418;SDS011;45224;50.904;6.038;2023-02-15T09:46:16;30.92;;;13.55;;
59418;SDS011;45224;50.904;6.038;2023-02-15T09:51:38;33.55;;;13.75;;
59418;SDS011;45224;50.904;6.038;2023-02-15T09:56:53;26.42;;;13.18;;